Time;durP1;ratioP1;P1;durP2;ratioP2;P2;SDS_P1;SDS_P2;PMS_P1;PMS_P2;Temp;Humidity;BMP_temperature;BMP_pressure;BME280_temperature;BME280_humidity;BME280_pressure;Samples;Min_cycle;Max_cycle;Signal;HPM_P1;HPM_P2
2022/08/19 00:02:07;;;;;;;9.60;8.70;;;;;;;21.35;64.36;99036.21;430312;1271;143565;-64
2022/08/19 00:12:15;;;;;;;13.20;11.40;;;;;;;21.26;64.72;99025.05;430782;1271;145841;-64
2022/08/19 00:22:21;;;;;;;10.50;9.40;;;;;;;21.18;64.92;99013.25;430771;1271;142713;-65
2022/08/19 00:32:28;;;;;;;10.90;9.90;;;;;;;21.11;65.28;98995.66;430172;1272;142050;-65
2022/08/19 00:42:35;;;;;;;10.40;9.40;;;;;;;21.09;65.58;98988.35;431633;1271;147361;-64
2022/08/19 00:52:45;;;;;;;10.80;9.70;;;;;;;21.10;65.69;98999.04;430624;1271;143551;-64
2022/08/19 01:02:53;;;;;;;10.20;9.00;;;;;;;21.11;65.83;99009.89;431064;1271;143118;-63
2022/08/19 01:13:02;;;;;;;11.80;10.70;;;;;;;21.06;65.86;99010.69;431356;1272;145674;-64
2022/08/19 01:23:08;;;;;;;9.40;8.40;;;;;;;20.98;66.14;99006.59;431783;1271;143059;-65
2022/08/19 01:33:15;;;;;;;12.50;10.10;;;;;;;20.89;66.55;99001.95;431989;1271;141677;-64
2022/08/19 01:43:21;;;;;;;11.40;10.20;;;;;;;20.82;66.76;98983.98;432552;1271;141658;-66
2022/08/19 01:53:27;;;;;;;12.10;10.60;;;;;;;20.75;67.02;98961.84;431715;1271;142472;-66
2022/08/19 02:03:38;;;;;;;12.60;9.40;;;;;;;20.74;67.38;98952.17;432066;1271;141840;-66
2022/08/19 02:13:44;;;;;;;10.40;9.40;;;;;;;20.78;67.46;98940.50;431647;1271;142642;-66
2022/08/19 02:23:51;;;;;;;10.50;9.50;;;;;;;20.89;67.49;98939.96;432264;1271;147426;-67
2022/08/19 02:33:57;;;;;;;11.10;9.70;;;;;;;20.99;67.30;98938.23;432026;1271;147169;-64
2022/08/19 02:44:04;;;;;;;10.70;9.00;;;;;;;21.02;67.38;98934.90;431069;1271;142410;-64
2022/08/19 02:54:31;;;;;;;9.00;8.10;;;;;;;21.11;67.38;98926.00;432442;1271;141693;-64
2022/08/19 03:04:36;;;;;;;9.70;8.70;;;;;;;21.19;67.22;98917.91;432398;1271;198853;-64
2022/08/19 03:14:42;;;;;;;10.20;9.30;;;;;;;21.22;67.26;98920.50;432215;1270;143871;-65
2022/08/19 03:24:48;;;;;;;10.40;8.60;;;;;;;21.24;67.32;98924.45;432485;1271;145785;-65
2022/08/19 03:34:54;;;;;;;9.80;8.80;;;;;;;21.26;67.27;98927.57;431866;1271;142024;-63
2022/08/19 03:45:01;;;;;;;9.40;8.60;;;;;;;21.31;67.30;98940.24;432716;1271;142825;-63
2022/08/19 03:55:08;;;;;;;10.10;9.10;;;;;;;21.34;67.22;98931.04;432825;1271;141573;-64
2022/08/19 04:05:15;;;;;;;10.40;9.40;;;;;;;21.50;67.04;98940.02;432617;1272;142288;-63
2022/08/19 04:15:21;;;;;;;10.90;9.40;;;;;;;21.74;66.86;98950.23;433132;1270;141382;-64
2022/08/19 04:25:27;;;;;;;9.90;8.90;;;;;;;21.97;66.36;98951.52;432680;1271;141397;-64
2022/08/19 04:35:39;;;;;;;9.60;8.60;;;;;;;22.28;65.95;98931.13;432217;1271;146052;-64
2022/08/19 04:45:46;;;;;;;10.10;8.90;;;;;;;22.74;64.86;98928.86;432097;1271;140836;-64
2022/08/19 04:55:53;;;;;;;9.00;8.20;;;;;;;23.11;64.03;98937.97;431956;1271;143163;-64
2022/08/19 05:05:59;;;;;;;9.50;7.50;;;;;;;23.29;63.27;98949.42;432783;1271;142330;-69
2022/08/19 05:16:06;;;;;;;10.80;7.40;;;;;;;24.51;62.09;98956.14;432292;1271;141776;-65
2022/08/19 05:26:12;;;;;;;8.70;7.10;;;;;;;28.35;56.76;98954.23;436837;1271;143150;-69
2022/08/19 05:36:19;;;;;;;8.30;7.50;;;;;;;30.95;50.01;98955.27;434068;1271;142029;-69
2022/08/19 05:46:25;;;;;;;9.00;7.50;;;;;;;33.15;45.60;98964.67;433677;1271;141675;-69
2022/08/19 05:56:37;;;;;;;7.20;6.60;;;;;;;35.12;42.28;98962.23;446706;1271;142512;-70
2022/08/19 06:06:43;;;;;;;7.90;6.60;;;;;;;36.13;39.59;98956.59;439842;1271;141347;-70
2022/08/19 06:16:52;;;;;;;5.70;5.20;;;;;;;38.21;36.62;98963.50;432229;1271;140951;-69
2022/08/19 06:27:01;;;;;;;8.00;6.70;;;;;;;39.14;33.89;98981.30;433247;1271;142167;-69
2022/08/19 06:37:07;;;;;;;6.30;5.70;;;;;;;40.49;32.27;98975.33;432073;1271;1575129;-69
2022/08/19 06:47:15;;;;;;;6.30;5.70;;;;;;;40.38;31.11;98957.86;432460;1271;144572;-70
2022/08/19 06:57:32;;;;;;;7.60;6.20;;;;;;;39.05;31.63;98948.48;433245;1270;141753;-70
2022/08/19 07:07:38;;;;;;;9.10;6.20;;;;;;;37.83;32.29;98964.34;432810;1271;141501;-70
2022/08/19 07:17:48;;;;;;;9.90;5.90;;;;;;;38.26;31.95;98983.33;432995;1270;142311;-69
2022/08/19 07:27:57;;;;;;;7.20;6.50;;;;;;;39.66;30.84;98973.23;432980;1270;141186;-69
2022/08/19 07:38:06;;;;;;;5.80;5.20;;;;;;;41.13;29.38;98972.66;432675;1271;196285;-72
2022/08/19 07:48:12;;;;;;;5.80;5.30;;;;;;;40.75;29.01;98978.38;433448;1271;142142;-70
2022/08/19 07:58:22;;;;;;;10.10;5.90;;;;;;;40.75;29.48;98999.50;433240;1271;141389;-69
2022/08/19 08:18:53;;;;;;;5.50;5.00;;;;;;;43.23;26.63;98994.42;431882;1271;142075;-68
2022/08/19 08:28:59;;;;;;;7.60;6.20;;;;;;;42.74;26.49;99011.14;430101;1271;142673;-68
2022/08/19 08:39:05;;;;;;;7.30;6.10;;;;;;;38.47;29.37;99010.80;431371;1270;140418;-69
2022/08/19 08:49:21;;;;;;;10.20;6.50;;;;;;;35.94;32.41;99008.42;431254;1271;141148;-67
2022/08/19 08:59:32;;;;;;;7.70;6.50;;;;;;;35.23;34.01;99014.36;430652;1270;140517;-66
2022/08/19 09:09:43;;;;;;;6.90;6.30;;;;;;;35.34;34.52;99016.84;431497;1270;141307;-69
2022/08/19 09:19:56;;;;;;;7.30;6.70;;;;;;;35.24;34.68;99016.05;430363;1272;141453;-68
2022/08/19 09:30:03;;;;;;;7.90;7.20;;;;;;;35.12;35.07;99006.30;432834;1271;140938;-69
2022/08/19 09:40:11;;;;;;;7.70;6.90;;;;;;;34.12;36.03;99006.77;431000;1271;142451;-69
2022/08/19 09:50:19;;;;;;;7.60;6.90;;;;;;;33.59;37.01;98998.64;438021;1270;142225;-67
2022/08/19 10:00:25;;;;;;;7.80;7.20;;;;;;;33.42;37.64;98993.23;435052;1271;141186;-65
2022/08/19 10:10:35;;;;;;;7.60;6.80;;;;;;;33.44;37.90;98989.64;431458;1270;141047;-66
2022/08/19 10:20:41;;;;;;;7.60;6.70;;;;;;;33.19;38.42;98984.23;431198;1271;141793;-68
2022/08/19 10:30:48;;;;;;;8.60;7.70;;;;;;;33.06;38.76;98982.24;431119;1271;141690;-69
2022/08/19 10:40:54;;;;;;;8.80;7.00;;;;;;;32.85;38.94;98975.13;431405;1271;140871;-69
2022/08/19 11:01:29;;;;;;;7.20;6.60;;;;;;;32.48;39.23;98976.05;431376;1270;141888;-64
2022/08/19 11:11:39;;;;;;;7.50;6.70;;;;;;;32.39;39.20;98957.76;431640;1272;140921;-63
2022/08/19 11:21:47;;;;;;;6.40;5.90;;;;;;;32.41;39.10;98944.05;432958;1272;140909;-63
2022/08/19 11:31:54;;;;;;;10.40;6.30;;;;;;;32.61;38.53;98927.33;435346;1271;141464;-65
2022/08/19 11:42:02;;;;;;;7.80;7.10;;;;;;;32.73;38.52;98920.41;431425;1271;141279;-65
2022/08/19 11:52:08;;;;;;;7.00;6.30;;;;;;;32.75;38.58;98918.85;432940;1271;141987;-67
2022/08/19 12:02:15;;;;;;;8.90;7.20;;;;;;;32.91;38.43;98929.84;431450;1270;140687;-74
2022/08/19 12:12:23;;;;;;;7.30;6.20;;;;;;;32.92;38.66;98924.08;433682;1271;142810;-63
2022/08/19 12:22:29;;;;;;;7.80;6.60;;;;;;;33.04;38.06;98911.70;435373;1271;141600;-63
2022/08/19 12:32:36;;;;;;;8.10;5.90;;;;;;;32.94;38.34;98910.40;430810;1271;144068;-71
2022/08/19 12:42:43;;;;;;;7.40;6.20;;;;;;;32.88;38.20;98914.91;431681;1271;143033;-63
2022/08/19 12:52:49;;;;;;;8.60;5.10;;;;;;;33.14;37.84;98917.30;430855;1271;141701;-64
2022/08/19 13:02:55;;;;;;;7.30;6.40;;;;;;;33.46;37.84;98921.16;431074;1271;146168;-64
2022/08/19 13:13:02;;;;;;;10.60;6.00;;;;;;;33.44;37.48;98916.40;430894;1271;140255;-67
2022/08/19 13:23:09;;;;;;;7.90;6.20;;;;;;;33.39;37.43;98918.23;430641;1269;141870;-64
2022/08/19 13:33:15;;;;;;;;;;;;;;;33.25;37.38;98913.27;431044;1271;196690;-63
2022/08/19 13:43:23;;;;;;;14.20;6.40;;;;;;;33.12;37.68;98910.23;431438;1270;127907;-63
2022/08/19 13:53:30;;;;;;;6.60;6.00;;;;;;;32.96;38.43;98905.04;430515;1271;141932;-70
2022/08/19 14:03:37;;;;;;;9.10;7.60;;;;;;;32.90;39.19;98901.98;431652;1271;141215;-64
2022/08/19 14:13:43;;;;;;;7.70;6.80;;;;;;;32.90;39.50;98897.80;430709;1271;143570;-64
2022/08/19 14:23:49;;;;;;;11.10;5.90;;;;;;;32.90;39.73;98899.27;442632;1271;141845;-64
2022/08/19 14:33:55;;;;;;;16.90;5.80;;;;;;;32.73;38.05;98902.15;432086;1271;149108;-62
2022/08/19 14:44:01;;;;;;;;;;;;;;;32.85;37.37;98902.05;430652;1271;141106;-61
2022/08/19 14:54:07;;;;;;;12.50;4.20;;;;;;;32.95;36.71;98893.71;432469;1271;128098;-64
2022/08/19 15:04:13;;;;;;;7.70;4.30;;;;;;;32.91;36.03;98884.05;431963;1271;141821;-63
2022/08/19 15:14:20;;;;;;;5.80;4.50;;;;;;;32.86;36.46;98878.73;431106;1271;141776;-64
2022/08/19 15:24:26;;;;;;;19.60;6.50;;;;;;;32.74;36.03;98872.05;430783;1271;146857;-62
2022/08/19 15:34:31;;;;;;;;;;;;;;;32.57;35.78;98877.48;440206;1270;142712;-63
2022/08/19 15:44:37;;;;;;;11.30;4.70;;;;;;;32.34;36.05;98861.23;431206;1271;129391;-62
2022/08/19 15:54:43;;;;;;;9.90;4.80;;;;;;;32.23;36.33;98854.34;430843;1271;142163;-63
2022/08/19 16:15:13;;;;;;;14.90;5.70;;;;;;;32.17;37.22;98849.19;430640;1271;142093;-63
2022/08/19 16:25:20;;;;;;;9.10;4.90;;;;;;;32.03;37.57;98845.38;430580;1271;142144;-62
2022/08/19 16:35:24;;;;;;;;;;;;;;;31.86;37.90;98840.19;430885;1271;145887;-62
2022/08/19 16:45:31;;;;;;;9.20;6.20;;;;;;;31.63;38.68;98835.02;431210;1271;127178;-63
2022/08/19 16:55:37;;;;;;;9.20;6.30;;;;;;;31.32;39.91;98850.09;430401;1271;143083;-63
2022/08/19 17:05:45;;;;;;;9.80;7.30;;;;;;;30.97;41.36;98879.73;431527;1271;146858;-63
2022/08/19 17:15:51;;;;;;;11.30;8.10;;;;;;;30.74;42.40;98899.20;430270;1271;141862;-62
2022/08/19 17:25:57;;;;;;;13.90;8.10;;;;;;;30.51;43.09;98906.62;445615;1269;142411;-63
2022/08/19 17:36:05;;;;;;;10.00;8.80;;;;;;;30.24;43.92;98915.38;433182;1270;141800;-63
2022/08/19 17:46:14;;;;;;;8.80;7.90;;;;;;;29.91;44.88;98914.67;431327;1271;141574;-64
2022/08/19 17:56:23;;;;;;;8.80;8.00;;;;;;;29.55;45.56;98921.45;431435;1271;142264;-63
2022/08/19 18:06:28;;;;;;;;;;;;;;;29.22;46.20;98912.98;431984;1271;141359;-65
2022/08/19 18:16:35;;;;;;;9.90;7.80;;;;;;;28.89;46.66;98922.21;432556;1271;127571;-63
2022/08/19 18:26:41;;;;;;;10.30;9.30;;;;;;;28.61;47.22;98933.98;430856;1271;141242;-61
2022/08/19 18:36:47;;;;;;;10.20;9.30;;;;;;;28.37;47.90;98927.14;429396;1271;2975525;-62
2022/08/19 18:57:23;;;;;;;9.40;8.30;;;;;;;27.88;49.15;98932.60;431731;1271;141179;-63
2022/08/19 19:07:30;;;;;;;9.70;8.30;;;;;;;27.64;49.73;98928.93;432196;1271;140965;-62
2022/08/19 19:17:36;;;;;;;9.40;8.50;;;;;;;27.41;50.25;98917.14;431261;1271;141386;-64
2022/08/19 19:27:44;;;;;;;11.80;9.60;;;;;;;27.18;50.76;98934.14;432739;1271;142583;-64
2022/08/19 19:37:51;;;;;;;10.90;9.80;;;;;;;27.01;51.34;98945.19;430755;1271;140409;-63
2022/08/19 19:47:59;;;;;;;13.60;10.70;;;;;;;26.84;51.91;98970.13;432114;1271;141892;-63
2022/08/19 19:58:05;;;;;;;15.30;11.00;;;;;;;26.72;52.87;98983.41;432859;1271;141138;-65
2022/08/19 20:18:35;;;;;;;12.10;8.90;;;;;;;26.58;53.68;99040.63;431089;1272;141555;-67
2022/08/19 20:28:41;;;;;;;15.30;10.90;;;;;;;26.56;54.69;99046.68;432150;1271;142156;-68
2022/08/19 20:38:55;;;;;;;13.90;11.20;;;;;;;26.44;54.81;99030.07;431404;1271;142864;-66
2022/08/19 20:49:01;;;;;;;14.40;10.20;;;;;;;26.39;54.39;99012.46;432367;1271;142297;-67
2022/08/19 20:59:10;;;;;;;12.30;10.40;;;;;;;26.44;54.17;99053.13;431808;1271;141949;-62
2022/08/19 21:09:16;;;;;;;29.50;8.00;;;;;;;26.29;54.81;99117.33;430957;1271;142568;-62
2022/08/19 21:19:23;;;;;;;10.90;7.20;;;;;;;25.80;55.67;99176.47;430639;1271;141100;-61
2022/08/19 21:29:30;;;;;;;7.90;5.80;;;;;;;25.07;57.38;99158.48;430173;1271;141461;-61
2022/08/19 21:39:36;;;;;;;10.70;7.00;;;;;;;24.55;59.22;99111.91;430992;1271;142260;-61
2022/08/19 21:49:42;;;;;;;14.70;7.70;;;;;;;24.10;60.64;99061.88;429720;1271;154630;-61
2022/08/19 21:59:48;;;;;;;12.90;10.10;;;;;;;23.77;62.27;99084.20;430861;1271;143340;-60
2022/08/19 22:09:54;;;;;;;9.70;7.50;;;;;;;23.53;63.65;99100.10;430792;1271;144059;-60
2022/08/19 22:20:00;;;;;;;12.30;8.20;;;;;;;23.33;64.28;99095.21;429895;1271;143280;-60
2022/08/19 22:30:09;;;;;;;9.20;7.30;;;;;;;23.20;64.78;99065.34;430946;1271;141775;-61
2022/08/19 22:40:15;;;;;;;8.80;7.30;;;;;;;23.34;65.25;99073.61;431700;1271;144183;-61
2022/08/19 22:50:22;;;;;;;12.30;6.90;;;;;;;23.47;65.04;99062.58;430983;1271;142623;-59
2022/08/19 23:00:29;;;;;;;13.30;6.30;;;;;;;23.78;64.36;99064.52;431718;1271;142526;-60
2022/08/19 23:10:35;;;;;;;8.90;6.80;;;;;;;23.59;64.66;99074.59;431191;1271;143589;-62
2022/08/19 23:20:43;;;;;;;12.10;7.70;;;;;;;23.31;65.03;99083.11;431040;1271;196838;-62
2022/08/19 23:30:51;;;;;;;10.80;6.80;;;;;;;23.07;65.40;99090.19;430880;1271;142961;-59
2022/08/19 23:40:59;;;;;;;9.60;6.90;;;;;;;23.12;65.71;99110.41;430630;1271;142376;-60
2022/08/19 23:51:09;;;;;;;9.50;6.60;;;;;;;23.16;65.64;99125.65;431171;1271;141562;-60
